sensor_id;sensor_type;location;lat;lon;timestamp;P1;durP1;ratioP1;P2;durP2;ratioP2
43933;SDS011;59081;42.706;23.306;2023-07-02T00:02:19;12.65;;;6.78;;
43933;SDS011;59081;42.706;23.306;2023-07-02T00:04:50;9.05;;;5.70;;
43933;SDS011;59081;42.706;23.306;2023-07-02T00:07:24;8.93;;;5.60;;
43933;SDS011;59081;42.706;23.306;2023-07-02T00:10:03;12.07;;;6.18;;
43933;SDS011;59081;42.706;23.306;2023-07-02T00:13:00;9.73;;;5.85;;
43933;SDS011;59081;42.706;23.306;2023-07-02T00:15:36;12.98;;;6.35;;
43933;SDS011;59081;42.706;23.306;2023-07-02T00:18:07;13.52;;;6.25;;
43933;SDS011;59081;42.706;23.306;2023-07-02T00:24:27;14.73;;;6.57;;
43933;SDS011;59081;42.706;23.306;2023-07-02T00:27:02;10.15;;;6.25;;
43933;SDS011;59081;42.706;23.306;2023-07-02T00:29:49;9.98;;;6.30;;
43933;SDS011;59081;42.706;23.306;2023-07-02T00:32:24;15.80;;;7.70;;
43933;SDS011;59081;42.706;23.306;2023-07-02T00:35:01;11.02;;;7.68;;
43933;SDS011;59081;42.706;23.306;2023-07-02T00:37:39;12.25;;;7.00;;
43933;SDS011;59081;42.706;23.306;2023-07-02T00:40:50;10.55;;;7.15;;
43933;SDS011;59081;42.706;23.306;2023-07-02T00:43:05;11.85;;;6.45;;
43933;SDS011;59081;42.706;23.306;2023-07-02T00:45:41;10.00;;;5.93;;
43933;SDS011;59081;42.706;23.306;2023-07-02T00:48:23;10.00;;;6.60;;
43933;SDS011;59081;42.706;23.306;2023-07-02T00:54:15;11.55;;;5.90;;
43933;SDS011;59081;42.706;23.306;2023-07-02T00:56:50;11.60;;;6.80;;
43933;SDS011;59081;42.706;23.306;2023-07-02T00:59:18;10.98;;;5.93;;
43933;SDS011;59081;42.706;23.306;2023-07-02T01:01:50;12.00;;;6.43;;
43933;SDS011;59081;42.706;23.306;2023-07-02T01:04:22;11.50;;;5.38;;
43933;SDS011;59081;42.706;23.306;2023-07-02T01:09:52;8.57;;;6.10;;
43933;SDS011;59081;42.706;23.306;2023-07-02T01:12:52;8.93;;;4.93;;
43933;SDS011;59081;42.706;23.306;2023-07-02T01:24:36;8.38;;;5.07;;
43933;SDS011;59081;42.706;23.306;2023-07-02T01:27:23;9.20;;;5.90;;
43933;SDS011;59081;42.706;23.306;2023-07-02T01:29:53;8.93;;;4.88;;
43933;SDS011;59081;42.706;23.306;2023-07-02T01:35:15;11.70;;;6.38;;
43933;SDS011;59081;42.706;23.306;2023-07-02T01:38:15;8.85;;;5.72;;
43933;SDS011;59081;42.706;23.306;2023-07-02T01:40:43;9.63;;;6.00;;
43933;SDS011;59081;42.706;23.306;2023-07-02T01:43:25;10.60;;;6.35;;
43933;SDS011;59081;42.706;23.306;2023-07-02T01:46:23;9.07;;;5.47;;
43933;SDS011;59081;42.706;23.306;2023-07-02T01:52:18;11.38;;;5.88;;
43933;SDS011;59081;42.706;23.306;2023-07-02T01:55:04;11.55;;;5.60;;
43933;SDS011;59081;42.706;23.306;2023-07-02T01:58:16;13.18;;;7.13;;
43933;SDS011;59081;42.706;23.306;2023-07-02T02:14:11;14.60;;;10.55;;
43933;SDS011;59081;42.706;23.306;2023-07-02T02:17:17;20.00;;;9.80;;
43933;SDS011;59081;42.706;23.306;2023-07-02T02:20:31;17.23;;;9.20;;
43933;SDS011;59081;42.706;23.306;2023-07-02T02:23:08;13.60;;;7.35;;
43933;SDS011;59081;42.706;23.306;2023-07-02T02:25:50;13.88;;;7.30;;
43933;SDS011;59081;42.706;23.306;2023-07-02T02:28:36;11.55;;;6.88;;
43933;SDS011;59081;42.706;23.306;2023-07-02T02:31:32;14.18;;;7.75;;
43933;SDS011;59081;42.706;23.306;2023-07-02T02:34:43;16.10;;;7.32;;
43933;SDS011;59081;42.706;23.306;2023-07-02T02:37:22;11.75;;;6.18;;
43933;SDS011;59081;42.706;23.306;2023-07-02T02:40:38;12.75;;;6.28;;
43933;SDS011;59081;42.706;23.306;2023-07-02T02:49:44;15.95;;;6.82;;
43933;SDS011;59081;42.706;23.306;2023-07-02T02:52:41;16.55;;;7.68;;
43933;SDS011;59081;42.706;23.306;2023-07-02T02:55:33;13.00;;;7.70;;
43933;SDS011;59081;42.706;23.306;2023-07-02T02:58:26;11.80;;;7.07;;
43933;SDS011;59081;42.706;23.306;2023-07-02T03:01:04;12.88;;;7.93;;
43933;SDS011;59081;42.706;23.306;2023-07-02T03:03:57;15.73;;;6.68;;
43933;SDS011;59081;42.706;23.306;2023-07-02T03:06:55;13.38;;;5.93;;
43933;SDS011;59081;42.706;23.306;2023-07-02T03:09:45;10.80;;;6.25;;
43933;SDS011;59081;42.706;23.306;2023-07-02T03:15:12;13.52;;;6.35;;
43933;SDS011;59081;42.706;23.306;2023-07-02T03:17:48;10.55;;;6.10;;
43933;SDS011;59081;42.706;23.306;2023-07-02T03:20:32;10.13;;;6.40;;
43933;SDS011;59081;42.706;23.306;2023-07-02T03:23:31;11.85;;;6.20;;
43933;SDS011;59081;42.706;23.306;2023-07-02T03:26:01;11.20;;;6.05;;
43933;SDS011;59081;42.706;23.306;2023-07-02T03:28:34;9.68;;;6.15;;
43933;SDS011;59081;42.706;23.306;2023-07-02T03:31:19;9.73;;;5.75;;
43933;SDS011;59081;42.706;23.306;2023-07-02T03:34:16;15.88;;;5.90;;
43933;SDS011;59081;42.706;23.306;2023-07-02T03:36:56;9.48;;;6.00;;
43933;SDS011;59081;42.706;23.306;2023-07-02T03:39:37;12.52;;;6.15;;
43933;SDS011;59081;42.706;23.306;2023-07-02T03:47:53;10.73;;;6.28;;
43933;SDS011;59081;42.706;23.306;2023-07-02T03:53:24;16.92;;;6.72;;
43933;SDS011;59081;42.706;23.306;2023-07-02T03:55:58;11.30;;;5.55;;
43933;SDS011;59081;42.706;23.306;2023-07-02T03:58:39;12.98;;;5.70;;
43933;SDS011;59081;42.706;23.306;2023-07-02T04:01:52;14.57;;;5.88;;
43933;SDS011;59081;42.706;23.306;2023-07-02T04:04:46;14.80;;;6.00;;
43933;SDS011;59081;42.706;23.306;2023-07-02T04:07:19;13.07;;;6.00;;
43933;SDS011;59081;42.706;23.306;2023-07-02T04:10:46;11.02;;;5.95;;
43933;SDS011;59081;42.706;23.306;2023-07-02T04:13:21;11.30;;;6.55;;
43933;SDS011;59081;42.706;23.306;2023-07-02T04:16:25;12.45;;;6.75;;
43933;SDS011;59081;42.706;23.306;2023-07-02T04:19:22;11.02;;;6.80;;
43933;SDS011;59081;42.706;23.306;2023-07-02T04:22:14;10.82;;;6.63;;
43933;SDS011;59081;42.706;23.306;2023-07-02T04:25:16;13.85;;;7.32;;
43933;SDS011;59081;42.706;23.306;2023-07-02T04:30:58;12.10;;;6.53;;
43933;SDS011;59081;42.706;23.306;2023-07-02T04:33:35;11.65;;;7.35;;
43933;SDS011;59081;42.706;23.306;2023-07-02T04:36:05;14.75;;;7.03;;
43933;SDS011;59081;42.706;23.306;2023-07-02T04:38:33;14.35;;;7.35;;
43933;SDS011;59081;42.706;23.306;2023-07-02T04:41:08;14.82;;;8.07;;
43933;SDS011;59081;42.706;23.306;2023-07-02T04:43:40;19.23;;;7.82;;
43933;SDS011;59081;42.706;23.306;2023-07-02T04:46:28;18.83;;;8.35;;
43933;SDS011;59081;42.706;23.306;2023-07-02T04:49:13;13.82;;;8.80;;
43933;SDS011;59081;42.706;23.306;2023-07-02T04:52:02;19.45;;;8.82;;
43933;SDS011;59081;42.706;23.306;2023-07-02T04:54:56;16.42;;;7.72;;
43933;SDS011;59081;42.706;23.306;2023-07-02T04:57:36;14.38;;;7.57;;
43933;SDS011;59081;42.706;23.306;2023-07-02T05:00:28;14.45;;;8.00;;
43933;SDS011;59081;42.706;23.306;2023-07-02T05:03:36;16.02;;;8.65;;
43933;SDS011;59081;42.706;23.306;2023-07-02T05:06:05;15.45;;;8.15;;
43933;SDS011;59081;42.706;23.306;2023-07-02T05:08:49;17.33;;;8.55;;
43933;SDS011;59081;42.706;23.306;2023-07-02T05:11:16;15.88;;;8.48;;
43933;SDS011;59081;42.706;23.306;2023-07-02T05:13:52;15.20;;;7.53;;
43933;SDS011;59081;42.706;23.306;2023-07-02T05:16:49;17.08;;;7.70;;
43933;SDS011;59081;42.706;23.306;2023-07-02T05:19:33;12.80;;;7.10;;
43933;SDS011;59081;42.706;23.306;2023-07-02T05:21:59;12.35;;;7.63;;
43933;SDS011;59081;42.706;23.306;2023-07-02T05:24:31;14.82;;;7.03;;
43933;SDS011;59081;42.706;23.306;2023-07-02T05:27:02;13.38;;;7.25;;
43933;SDS011;59081;42.706;23.306;2023-07-02T05:29:42;15.05;;;8.05;;
43933;SDS011;59081;42.706;23.306;2023-07-02T05:32:11;15.05;;;8.35;;
43933;SDS011;59081;42.706;23.306;2023-07-02T05:34:39;24.73;;;8.05;;
43933;SDS011;59081;42.706;23.306;2023-07-02T05:37:13;13.43;;;7.15;;
43933;SDS011;59081;42.706;23.306;2023-07-02T05:39:42;12.45;;;7.65;;
43933;SDS011;59081;42.706;23.306;2023-07-02T05:42:16;14.02;;;6.97;;
43933;SDS011;59081;42.706;23.306;2023-07-02T05:45:10;15.05;;;7.65;;
43933;SDS011;59081;42.706;23.306;2023-07-02T05:47:43;17.23;;;8.55;;
43933;SDS011;59081;42.706;23.306;2023-07-02T05:51:04;14.30;;;6.88;;
43933;SDS011;59081;42.706;23.306;2023-07-02T05:56:16;13.13;;;7.60;;
43933;SDS011;59081;42.706;23.306;2023-07-02T05:58:56;15.93;;;7.97;;
43933;SDS011;59081;42.706;23.306;2023-07-02T06:01:36;17.65;;;8.10;;
43933;SDS011;59081;42.706;23.306;2023-07-02T06:04:23;17.55;;;9.20;;
43933;SDS011;59081;42.706;23.306;2023-07-02T06:06:57;17.50;;;8.38;;
43933;SDS011;59081;42.706;23.306;2023-07-02T06:09:28;15.05;;;8.05;;
43933;SDS011;59081;42.706;23.306;2023-07-02T06:15:28;15.25;;;8.85;;
43933;SDS011;59081;42.706;23.306;2023-07-02T06:18:20;17.52;;;10.02;;
43933;SDS011;59081;42.706;23.306;2023-07-02T06:21:12;14.13;;;8.10;;
43933;SDS011;59081;42.706;23.306;2023-07-02T06:23:51;16.73;;;8.18;;
43933;SDS011;59081;42.706;23.306;2023-07-02T06:26:27;17.00;;;8.77;;
43933;SDS011;59081;42.706;23.306;2023-07-02T06:29:01;17.45;;;8.10;;
43933;SDS011;59081;42.706;23.306;2023-07-02T06:31:43;21.40;;;8.45;;
43933;SDS011;59081;42.706;23.306;2023-07-02T06:34:18;16.73;;;9.23;;
43933;SDS011;59081;42.706;23.306;2023-07-02T06:36:56;19.73;;;8.30;;
43933;SDS011;59081;42.706;23.306;2023-07-02T06:42:53;15.10;;;8.57;;
43933;SDS011;59081;42.706;23.306;2023-07-02T06:45:46;19.58;;;8.35;;
43933;SDS011;59081;42.706;23.306;2023-07-02T06:48:40;17.00;;;9.45;;
43933;SDS011;59081;42.706;23.306;2023-07-02T06:51:17;16.10;;;8.77;;
43933;SDS011;59081;42.706;23.306;2023-07-02T06:53:56;14.98;;;7.68;;
43933;SDS011;59081;42.706;23.306;2023-07-02T06:56:34;18.38;;;10.07;;
43933;SDS011;59081;42.706;23.306;2023-07-02T06:59:05;20.95;;;9.27;;
43933;SDS011;59081;42.706;23.306;2023-07-02T07:01:37;16.13;;;9.80;;
43933;SDS011;59081;42.706;23.306;2023-07-02T07:04:17;16.55;;;11.00;;
43933;SDS011;59081;42.706;23.306;2023-07-02T07:06:48;15.15;;;10.48;;
43933;SDS011;59081;42.706;23.306;2023-07-02T07:09:30;12.90;;;8.00;;
43933;SDS011;59081;42.706;23.306;2023-07-02T07:12:01;17.25;;;9.25;;
43933;SDS011;59081;42.706;23.306;2023-07-02T07:14:37;19.80;;;10.23;;
43933;SDS011;59081;42.706;23.306;2023-07-02T07:17:06;20.95;;;9.90;;
43933;SDS011;59081;42.706;23.306;2023-07-02T07:19:56;15.30;;;9.07;;
43933;SDS011;59081;42.706;23.306;2023-07-02T07:22:38;14.60;;;8.98;;
43933;SDS011;59081;42.706;23.306;2023-07-02T07:25:47;15.23;;;8.98;;
43933;SDS011;59081;42.706;23.306;2023-07-02T07:28:16;17.25;;;9.35;;
43933;SDS011;59081;42.706;23.306;2023-07-02T07:30:59;15.83;;;8.37;;
43933;SDS011;59081;42.706;23.306;2023-07-02T07:33:48;15.70;;;8.63;;
43933;SDS011;59081;42.706;23.306;2023-07-02T07:36:22;17.10;;;9.05;;
43933;SDS011;59081;42.706;23.306;2023-07-02T07:39:07;12.43;;;8.05;;
43933;SDS011;59081;42.706;23.306;2023-07-02T07:50:10;13.77;;;8.73;;
43933;SDS011;59081;42.706;23.306;2023-07-02T07:52:39;12.85;;;7.65;;
43933;SDS011;59081;42.706;23.306;2023-07-02T07:55:08;12.02;;;7.55;;
43933;SDS011;59081;42.706;23.306;2023-07-02T07:57:50;17.10;;;7.75;;
43933;SDS011;59081;42.706;23.306;2023-07-02T08:00:19;11.60;;;7.25;;
43933;SDS011;59081;42.706;23.306;2023-07-02T08:02:54;14.63;;;7.40;;
43933;SDS011;59081;42.706;23.306;2023-07-02T08:05:27;11.05;;;7.03;;
43933;SDS011;59081;42.706;23.306;2023-07-02T08:08:01;15.00;;;7.78;;
43933;SDS011;59081;42.706;23.306;2023-07-02T08:10:35;15.05;;;7.50;;
43933;SDS011;59081;42.706;23.306;2023-07-02T08:13:18;13.30;;;7.13;;
43933;SDS011;59081;42.706;23.306;2023-07-02T08:16:01;9.93;;;7.18;;
43933;SDS011;59081;42.706;23.306;2023-07-02T08:18:50;14.70;;;7.35;;
43933;SDS011;59081;42.706;23.306;2023-07-02T08:21:22;12.02;;;7.50;;
43933;SDS011;59081;42.706;23.306;2023-07-02T08:23:54;11.65;;;7.25;;
43933;SDS011;59081;42.706;23.306;2023-07-02T08:26:44;13.00;;;6.75;;
43933;SDS011;59081;42.706;23.306;2023-07-02T08:29:26;12.63;;;7.97;;
43933;SDS011;59081;42.706;23.306;2023-07-02T08:32:06;11.63;;;6.80;;
43933;SDS011;59081;42.706;23.306;2023-07-02T08:34:54;14.35;;;8.02;;
43933;SDS011;59081;42.706;23.306;2023-07-02T08:37:40;12.65;;;6.93;;
43933;SDS011;59081;42.706;23.306;2023-07-02T08:43:03;11.40;;;7.13;;
43933;SDS011;59081;42.706;23.306;2023-07-02T08:45:46;13.88;;;6.80;;
43933;SDS011;59081;42.706;23.306;2023-07-02T08:48:22;15.85;;;8.07;;
43933;SDS011;59081;42.706;23.306;2023-07-02T08:50:57;13.55;;;7.03;;
43933;SDS011;59081;42.706;23.306;2023-07-02T08:53:37;10.10;;;6.35;;
43933;SDS011;59081;42.706;23.306;2023-07-02T08:56:09;11.95;;;5.55;;
43933;SDS011;59081;42.706;23.306;2023-07-02T08:58:41;9.30;;;5.60;;
43933;SDS011;59081;42.706;23.306;2023-07-02T09:01:25;13.73;;;6.90;;
43933;SDS011;59081;42.706;23.306;2023-07-02T09:04:22;10.95;;;6.85;;
43933;SDS011;59081;42.706;23.306;2023-07-02T09:07:14;10.77;;;6.95;;
43933;SDS011;59081;42.706;23.306;2023-07-02T09:09:49;19.55;;;8.02;;
43933;SDS011;59081;42.706;23.306;2023-07-02T09:12:22;14.05;;;6.10;;
43933;SDS011;59081;42.706;23.306;2023-07-02T09:15:03;15.52;;;7.15;;
43933;SDS011;59081;42.706;23.306;2023-07-02T09:17:35;11.73;;;6.45;;
43933;SDS011;59081;42.706;23.306;2023-07-02T09:20:06;9.68;;;4.88;;
43933;SDS011;59081;42.706;23.306;2023-07-02T09:22:41;9.10;;;5.85;;
43933;SDS011;59081;42.706;23.306;2023-07-02T09:25:10;9.70;;;6.20;;
43933;SDS011;59081;42.706;23.306;2023-07-02T09:27:41;11.15;;;6.45;;
43933;SDS011;59081;42.706;23.306;2023-07-02T09:32:39;10.55;;;6.38;;
43933;SDS011;59081;42.706;23.306;2023-07-02T09:35:08;12.60;;;6.28;;
43933;SDS011;59081;42.706;23.306;2023-07-02T09:37:40;10.07;;;6.70;;
43933;SDS011;59081;42.706;23.306;2023-07-02T09:40:08;10.77;;;6.35;;
43933;SDS011;59081;42.706;23.306;2023-07-02T09:42:38;11.40;;;5.45;;
43933;SDS011;59081;42.706;23.306;2023-07-02T09:45:08;7.15;;;5.28;;
43933;SDS011;59081;42.706;23.306;2023-07-02T09:47:36;13.27;;;5.67;;
43933;SDS011;59081;42.706;23.306;2023-07-02T09:50:10;7.45;;;5.30;;
43933;SDS011;59081;42.706;23.306;2023-07-02T09:52:44;10.88;;;5.82;;
43933;SDS011;59081;42.706;23.306;2023-07-02T09:55:11;7.53;;;5.43;;
43933;SDS011;59081;42.706;23.306;2023-07-02T09:57:40;12.32;;;6.32;;
43933;SDS011;59081;42.706;23.306;2023-07-02T10:00:14;9.80;;;6.03;;
43933;SDS011;59081;42.706;23.306;2023-07-02T10:02:40;16.40;;;6.70;;
43933;SDS011;59081;42.706;23.306;2023-07-02T10:05:23;13.07;;;5.85;;
43933;SDS011;59081;42.706;23.306;2023-07-02T10:07:56;9.35;;;5.97;;
43933;SDS011;59081;42.706;23.306;2023-07-02T10:10:27;9.40;;;6.13;;
43933;SDS011;59081;42.706;23.306;2023-07-02T10:12:53;10.52;;;6.15;;
43933;SDS011;59081;42.706;23.306;2023-07-02T10:15:26;8.43;;;5.47;;
43933;SDS011;59081;42.706;23.306;2023-07-02T10:18:01;8.02;;;5.50;;
43933;SDS011;59081;42.706;23.306;2023-07-02T10:20:39;7.82;;;4.43;;
43933;SDS011;59081;42.706;23.306;2023-07-02T10:23:07;9.07;;;5.28;;
43933;SDS011;59081;42.706;23.306;2023-07-02T10:25:36;7.63;;;5.25;;
43933;SDS011;59081;42.706;23.306;2023-07-02T10:28:24;7.05;;;4.90;;
43933;SDS011;59081;42.706;23.306;2023-07-02T10:30:52;11.02;;;4.97;;
43933;SDS011;59081;42.706;23.306;2023-07-02T10:33:19;10.10;;;5.20;;
43933;SDS011;59081;42.706;23.306;2023-07-02T10:35:49;8.57;;;5.00;;
43933;SDS011;59081;42.706;23.306;2023-07-02T10:38:21;6.97;;;4.82;;
43933;SDS011;59081;42.706;23.306;2023-07-02T10:40:59;8.30;;;4.78;;
43933;SDS011;59081;42.706;23.306;2023-07-02T10:43:29;6.80;;;4.72;;
43933;SDS011;59081;42.706;23.306;2023-07-02T10:46:00;5.13;;;3.85;;
43933;SDS011;59081;42.706;23.306;2023-07-02T10:48:27;7.55;;;4.68;;
43933;SDS011;59081;42.706;23.306;2023-07-02T10:50:53;7.78;;;4.28;;
43933;SDS011;59081;42.706;23.306;2023-07-02T10:53:19;8.15;;;4.32;;
43933;SDS011;59081;42.706;23.306;2023-07-02T10:55:45;5.97;;;4.32;;
43933;SDS011;59081;42.706;23.306;2023-07-02T10:58:11;5.32;;;3.63;;
43933;SDS011;59081;42.706;23.306;2023-07-02T11:00:43;7.45;;;4.47;;
43933;SDS011;59081;42.706;23.306;2023-07-02T11:03:23;10.73;;;4.53;;
43933;SDS011;59081;42.706;23.306;2023-07-02T11:05:50;7.10;;;4.35;;
43933;SDS011;59081;42.706;23.306;2023-07-02T11:08:19;11.10;;;4.50;;
43933;SDS011;59081;42.706;23.306;2023-07-02T11:10:49;7.57;;;4.60;;
43933;SDS011;59081;42.706;23.306;2023-07-02T11:13:16;7.75;;;4.13;;
43933;SDS011;59081;42.706;23.306;2023-07-02T11:15:44;12.77;;;4.72;;
43933;SDS011;59081;42.706;23.306;2023-07-02T11:18:13;13.00;;;4.03;;
43933;SDS011;59081;42.706;23.306;2023-07-02T11:20:41;5.65;;;4.13;;
43933;SDS011;59081;42.706;23.306;2023-07-02T11:23:20;6.45;;;4.00;;
43933;SDS011;59081;42.706;23.306;2023-07-02T11:26:00;7.90;;;4.53;;
43933;SDS011;59081;42.706;23.306;2023-07-02T11:28:31;6.43;;;3.85;;
43933;SDS011;59081;42.706;23.306;2023-07-02T11:31:02;9.07;;;4.85;;
43933;SDS011;59081;42.706;23.306;2023-07-02T11:33:38;9.98;;;4.47;;
43933;SDS011;59081;42.706;23.306;2023-07-02T11:36:07;10.85;;;4.18;;
43933;SDS011;59081;42.706;23.306;2023-07-02T11:38:45;15.82;;;5.10;;
43933;SDS011;59081;42.706;23.306;2023-07-02T11:41:16;7.80;;;4.50;;
43933;SDS011;59081;42.706;23.306;2023-07-02T11:43:42;8.98;;;4.57;;
43933;SDS011;59081;42.706;23.306;2023-07-02T11:46:10;13.82;;;4.90;;
43933;SDS011;59081;42.706;23.306;2023-07-02T11:48:36;10.63;;;4.95;;
43933;SDS011;59081;42.706;23.306;2023-07-02T11:51:10;9.25;;;3.80;;
43933;SDS011;59081;42.706;23.306;2023-07-02T11:53:44;8.23;;;5.18;;
43933;SDS011;59081;42.706;23.306;2023-07-02T11:56:13;8.55;;;4.38;;
43933;SDS011;59081;42.706;23.306;2023-07-02T11:59:00;8.82;;;4.50;;
43933;SDS011;59081;42.706;23.306;2023-07-02T12:01:50;6.32;;;3.55;;
43933;SDS011;59081;42.706;23.306;2023-07-02T12:04:23;6.72;;;3.80;;
43933;SDS011;59081;42.706;23.306;2023-07-02T12:06:52;7.63;;;4.78;;
43933;SDS011;59081;42.706;23.306;2023-07-02T12:09:30;6.00;;;3.90;;
43933;SDS011;59081;42.706;23.306;2023-07-02T12:11:59;6.13;;;4.03;;
43933;SDS011;59081;42.706;23.306;2023-07-02T12:14:33;8.98;;;4.88;;
43933;SDS011;59081;42.706;23.306;2023-07-02T12:17:11;6.57;;;4.22;;
43933;SDS011;59081;42.706;23.306;2023-07-02T12:19:43;8.20;;;4.30;;
43933;SDS011;59081;42.706;23.306;2023-07-02T12:22:16;8.45;;;4.60;;
43933;SDS011;59081;42.706;23.306;2023-07-02T12:24:48;6.55;;;4.20;;
43933;SDS011;59081;42.706;23.306;2023-07-02T12:27:15;6.40;;;4.57;;
43933;SDS011;59081;42.706;23.306;2023-07-02T12:29:41;7.25;;;3.75;;
43933;SDS011;59081;42.706;23.306;2023-07-02T12:32:07;6.63;;;4.43;;
43933;SDS011;59081;42.706;23.306;2023-07-02T12:34:32;7.45;;;4.55;;
43933;SDS011;59081;42.706;23.306;2023-07-02T12:37:01;9.35;;;5.00;;
43933;SDS011;59081;42.706;23.306;2023-07-02T12:39:29;7.93;;;4.13;;
43933;SDS011;59081;42.706;23.306;2023-07-02T12:41:55;8.38;;;4.05;;
43933;SDS011;59081;42.706;23.306;2023-07-02T12:44:21;8.45;;;4.32;;
43933;SDS011;59081;42.706;23.306;2023-07-02T12:46:49;7.88;;;4.40;;
43933;SDS011;59081;42.706;23.306;2023-07-02T12:49:14;6.70;;;4.30;;
43933;SDS011;59081;42.706;23.306;2023-07-02T12:51:43;6.95;;;5.13;;
43933;SDS011;59081;42.706;23.306;2023-07-02T12:54:09;8.18;;;4.80;;
43933;SDS011;59081;42.706;23.306;2023-07-02T12:56:40;6.40;;;4.57;;
43933;SDS011;59081;42.706;23.306;2023-07-02T12:59:06;8.00;;;4.57;;
43933;SDS011;59081;42.706;23.306;2023-07-02T13:01:31;7.15;;;4.68;;
43933;SDS011;59081;42.706;23.306;2023-07-02T13:03:57;6.40;;;4.70;;
43933;SDS011;59081;42.706;23.306;2023-07-02T13:06:23;8.10;;;4.85;;
43933;SDS011;59081;42.706;23.306;2023-07-02T13:08:51;5.65;;;4.30;;
43933;SDS011;59081;42.706;23.306;2023-07-02T13:11:20;6.05;;;4.18;;
43933;SDS011;59081;42.706;23.306;2023-07-02T13:13:49;7.78;;;4.57;;
43933;SDS011;59081;42.706;23.306;2023-07-02T13:16:14;7.40;;;5.07;;
43933;SDS011;59081;42.706;23.306;2023-07-02T13:18:40;7.53;;;5.18;;
43933;SDS011;59081;42.706;23.306;2023-07-02T13:21:11;7.57;;;5.43;;
43933;SDS011;59081;42.706;23.306;2023-07-02T13:23:38;8.18;;;5.57;;
43933;SDS011;59081;42.706;23.306;2023-07-02T13:26:06;8.82;;;4.68;;
43933;SDS011;59081;42.706;23.306;2023-07-02T13:28:32;8.38;;;5.18;;
43933;SDS011;59081;42.706;23.306;2023-07-02T13:30:58;7.95;;;4.90;;
43933;SDS011;59081;42.706;23.306;2023-07-02T13:33:24;9.93;;;5.10;;
43933;SDS011;59081;42.706;23.306;2023-07-02T13:35:57;8.05;;;4.60;;
43933;SDS011;59081;42.706;23.306;2023-07-02T13:38:23;6.40;;;4.72;;
43933;SDS011;59081;42.706;23.306;2023-07-02T13:40:48;8.45;;;5.05;;
43933;SDS011;59081;42.706;23.306;2023-07-02T13:43:14;11.70;;;5.10;;
43933;SDS011;59081;42.706;23.306;2023-07-02T13:45:52;8.68;;;5.28;;
43933;SDS011;59081;42.706;23.306;2023-07-02T13:48:17;9.25;;;4.80;;
43933;SDS011;59081;42.706;23.306;2023-07-02T13:50:46;8.07;;;5.03;;
43933;SDS011;59081;42.706;23.306;2023-07-02T13:53:12;10.48;;;5.60;;
43933;SDS011;59081;42.706;23.306;2023-07-02T13:55:38;7.05;;;4.88;;
43933;SDS011;59081;42.706;23.306;2023-07-02T13:58:04;11.10;;;5.35;;
43933;SDS011;59081;42.706;23.306;2023-07-02T14:00:32;8.60;;;5.00;;
43933;SDS011;59081;42.706;23.306;2023-07-02T14:03:01;6.97;;;4.68;;
43933;SDS011;59081;42.706;23.306;2023-07-02T14:05:35;6.97;;;4.75;;
43933;SDS011;59081;42.706;23.306;2023-07-02T14:08:06;9.55;;;5.55;;
43933;SDS011;59081;42.706;23.306;2023-07-02T14:10:44;7.47;;;5.07;;
43933;SDS011;59081;42.706;23.306;2023-07-02T14:16:24;8.38;;;5.82;;
43933;SDS011;59081;42.706;23.306;2023-07-02T14:18:52;10.25;;;6.35;;
43933;SDS011;59081;42.706;23.306;2023-07-02T14:21:23;11.68;;;6.72;;
43933;SDS011;59081;42.706;23.306;2023-07-02T14:23:52;11.63;;;6.07;;
43933;SDS011;59081;42.706;23.306;2023-07-02T14:26:26;18.75;;;6.93;;
43933;SDS011;59081;42.706;23.306;2023-07-02T14:28:54;13.35;;;6.45;;
43933;SDS011;59081;42.706;23.306;2023-07-02T14:31:23;9.40;;;6.07;;
43933;SDS011;59081;42.706;23.306;2023-07-02T14:33:52;11.05;;;6.47;;
43933;SDS011;59081;42.706;23.306;2023-07-02T14:36:20;10.88;;;6.47;;
43933;SDS011;59081;42.706;23.306;2023-07-02T14:38:51;12.75;;;6.68;;
43933;SDS011;59081;42.706;23.306;2023-07-02T14:41:17;7.40;;;6.10;;
43933;SDS011;59081;42.706;23.306;2023-07-02T14:43:49;11.63;;;6.75;;
43933;SDS011;59081;42.706;23.306;2023-07-02T14:46:15;13.82;;;6.10;;
43933;SDS011;59081;42.706;23.306;2023-07-02T14:48:43;7.28;;;5.80;;
43933;SDS011;59081;42.706;23.306;2023-07-02T14:51:19;10.07;;;5.82;;
43933;SDS011;59081;42.706;23.306;2023-07-02T14:53:45;9.25;;;5.82;;
43933;SDS011;59081;42.706;23.306;2023-07-02T14:56:10;8.85;;;6.40;;
43933;SDS011;59081;42.706;23.306;2023-07-02T14:58:40;9.05;;;5.95;;
43933;SDS011;59081;42.706;23.306;2023-07-02T15:01:15;12.40;;;7.00;;
43933;SDS011;59081;42.706;23.306;2023-07-02T15:03:46;8.75;;;6.20;;
43933;SDS011;59081;42.706;23.306;2023-07-02T15:06:13;14.30;;;6.75;;
43933;SDS011;59081;42.706;23.306;2023-07-02T15:08:40;10.82;;;6.43;;
43933;SDS011;59081;42.706;23.306;2023-07-02T15:11:07;11.68;;;6.43;;
43933;SDS011;59081;42.706;23.306;2023-07-02T15:13:38;9.43;;;5.50;;
43933;SDS011;59081;42.706;23.306;2023-07-02T15:16:08;7.72;;;5.05;;
43933;SDS011;59081;42.706;23.306;2023-07-02T15:18:35;10.73;;;6.05;;
43933;SDS011;59081;42.706;23.306;2023-07-02T15:21:10;9.32;;;5.60;;
43933;SDS011;59081;42.706;23.306;2023-07-02T15:23:43;9.25;;;6.10;;
43933;SDS011;59081;42.706;23.306;2023-07-02T15:26:08;13.35;;;5.63;;
43933;SDS011;59081;42.706;23.306;2023-07-02T15:28:34;10.23;;;6.22;;
43933;SDS011;59081;42.706;23.306;2023-07-02T15:31:06;9.25;;;5.28;;
43933;SDS011;59081;42.706;23.306;2023-07-02T15:33:33;9.33;;;5.60;;
43933;SDS011;59081;42.706;23.306;2023-07-02T15:36:04;9.90;;;6.25;;
43933;SDS011;59081;42.706;23.306;2023-07-02T15:38:42;10.00;;;5.90;;
43933;SDS011;59081;42.706;23.306;2023-07-02T15:41:11;10.65;;;5.93;;
43933;SDS011;59081;42.706;23.306;2023-07-02T15:43:47;14.88;;;7.15;;
43933;SDS011;59081;42.706;23.306;2023-07-02T15:46:14;11.57;;;6.40;;
43933;SDS011;59081;42.706;23.306;2023-07-02T15:48:41;11.98;;;6.22;;
43933;SDS011;59081;42.706;23.306;2023-07-02T15:51:09;10.38;;;6.95;;
43933;SDS011;59081;42.706;23.306;2023-07-02T15:53:37;10.65;;;7.00;;
43933;SDS011;59081;42.706;23.306;2023-07-02T15:56:07;9.23;;;6.57;;
43933;SDS011;59081;42.706;23.306;2023-07-02T15:58:36;12.10;;;7.05;;
43933;SDS011;59081;42.706;23.306;2023-07-02T16:01:13;12.68;;;6.57;;
43933;SDS011;59081;42.706;23.306;2023-07-02T16:03:46;10.73;;;6.38;;
43933;SDS011;59081;42.706;23.306;2023-07-02T16:06:19;10.10;;;6.13;;
43933;SDS011;59081;42.706;23.306;2023-07-02T16:08:45;13.27;;;7.00;;
43933;SDS011;59081;42.706;23.306;2023-07-02T16:11:11;12.95;;;6.35;;
43933;SDS011;59081;42.706;23.306;2023-07-02T16:13:41;10.68;;;6.70;;
43933;SDS011;59081;42.706;23.306;2023-07-02T16:16:08;9.32;;;6.32;;
43933;SDS011;59081;42.706;23.306;2023-07-02T16:18:41;11.93;;;6.85;;
43933;SDS011;59081;42.706;23.306;2023-07-02T16:21:06;10.10;;;6.50;;
43933;SDS011;59081;42.706;23.306;2023-07-02T16:23:35;12.15;;;7.07;;
43933;SDS011;59081;42.706;23.306;2023-07-02T16:26:03;11.50;;;6.72;;
43933;SDS011;59081;42.706;23.306;2023-07-02T16:28:37;12.13;;;7.25;;
43933;SDS011;59081;42.706;23.306;2023-07-02T16:31:15;11.30;;;6.90;;
43933;SDS011;59081;42.706;23.306;2023-07-02T16:33:41;11.25;;;6.72;;
43933;SDS011;59081;42.706;23.306;2023-07-02T16:36:10;10.32;;;6.35;;
43933;SDS011;59081;42.706;23.306;2023-07-02T16:38:43;10.00;;;6.95;;
43933;SDS011;59081;42.706;23.306;2023-07-02T16:41:09;9.73;;;7.05;;
43933;SDS011;59081;42.706;23.306;2023-07-02T16:43:42;9.80;;;5.93;;